createdAt,value
2017-10-08T00:00:35.781Z,10.84
2017-10-08T00:01:35.461Z,10.92
2017-10-08T00:02:35.867Z,10.75
2017-10-08T00:03:35.445Z,10.69
2017-10-08T00:04:35.754Z,10.61
2017-10-08T00:05:35.745Z,10.61
2017-10-08T00:06:35.423Z,10.55
2017-10-08T00:07:35.833Z,10.64
2017-10-08T00:08:35.722Z,10.58
2017-10-08T00:09:36.028Z,10.57
2017-10-08T00:10:35.707Z,10.59
2017-10-08T00:11:36.016Z,10.69
2017-10-08T00:12:35.482Z,10.58
2017-10-08T00:13:35.785Z,10.53
2017-10-08T00:14:35.517Z,10.61
2017-10-08T00:15:35.360Z,10.58
2017-10-08T00:16:35.975Z,10.64
2017-10-08T00:17:35.446Z,10.59
2017-10-08T00:18:35.653Z,10.45
2017-10-08T00:19:35.432Z,10.51
2017-10-08T00:20:35.327Z,10.55
2017-10-08T00:21:35.317Z,10.53
2017-10-08T00:22:36.094Z,10.45
2017-10-08T00:23:35.616Z,10.39
2017-10-08T00:24:35.708Z,10.48
2017-10-08T00:25:35.913Z,10.36
2017-10-08T00:26:35.903Z,10.39
2017-10-08T00:27:35.376Z,10.33
2017-10-08T00:28:35.575Z,10.27
2017-10-08T00:29:35.570Z,10.25
2017-10-08T00:30:35.873Z,10.3
2017-10-08T00:31:35.244Z,10.27
2017-10-08T00:32:35.650Z,10.3
2017-10-08T00:33:35.852Z,10.23
2017-10-08T00:34:35.635Z,10.34
2017-10-08T00:35:35.525Z,10.28
2017-10-08T00:36:35.980Z,10.3
2017-10-08T00:37:35.515Z,10.27
2017-10-08T00:38:35.295Z,10.24
2017-10-08T00:39:35.504Z,10.18
2017-10-08T00:40:35.180Z,10.18
2017-10-08T00:41:35.586Z,10.25
2017-10-08T00:42:35.478Z,10.3
2017-10-08T00:43:35.470Z,10.25
2017-10-08T00:44:35.465Z,10.27
2017-10-08T00:45:35.456Z,10.27
2017-10-08T00:46:35.236Z,10.39
2017-10-08T00:47:35.127Z,10.41
2017-10-08T00:48:35.434Z,10.39
2017-10-08T00:49:35.424Z,10.41
2017-10-08T00:50:35.107Z,10.39
2017-10-08T00:51:35.410Z,10.34
2017-10-08T00:52:35.871Z,10.38
2017-10-08T00:53:35.731Z,10.45
2017-10-08T00:54:35.080Z,10.46
2017-10-08T00:55:35.385Z,10.51
2017-10-08T00:56:35.064Z,10.43
2017-10-08T00:57:35.059Z,10.49
2017-10-08T00:58:35.927Z,10.51
2017-10-08T00:59:35.768Z,10.43
2017-10-08T01:00:35.659Z,10.39
2017-10-08T01:01:35.340Z,10.34
2017-10-08T01:02:35.332Z,10.51
2017-10-08T01:03:35.789Z,10.51
2017-10-08T01:04:35.421Z,10.45
2017-10-08T01:05:35.311Z,10.41
2017-10-08T01:06:35.302Z,10.43
2017-10-08T01:07:35.300Z,10.45
2017-10-08T01:08:35.079Z,10.36
2017-10-08T01:09:35.280Z,10.38
2017-10-08T01:10:34.963Z,10.33
2017-10-08T01:11:35.368Z,10.31
2017-10-08T01:12:34.947Z,10.3
2017-10-08T01:13:35.566Z,10.23
2017-10-08T01:14:35.250Z,10.28
2017-10-08T01:15:35.238Z,10.31
2017-10-08T01:16:35.021Z,10.31
2017-10-08T01:17:35.226Z,10.28
2017-10-08T01:18:35.219Z,10.25
2017-10-08T01:19:35.104Z,10.33
2017-10-08T01:20:35.041Z,10.34
2017-10-08T01:21:35.508Z,10.36
2017-10-08T01:22:35.500Z,10.45
2017-10-08T01:23:35.181Z,10.41
2017-10-08T01:24:35.273Z,10.28
2017-10-08T01:25:34.858Z,10.39
2017-10-08T01:26:35.160Z,10.38
2017-10-08T01:27:34.841Z,10.23
2017-10-08T01:28:35.148Z,10.36
2017-10-08T01:29:34.981Z,10.39
2017-10-08T01:30:34.821Z,10.39
2017-10-08T01:31:35.065Z,10.31
2017-10-08T01:32:35.429Z,10.38
2017-10-08T01:33:35.108Z,10.3
2017-10-08T01:34:35.107Z,10.38
2017-10-08T01:35:35.096Z,10.36
2017-10-08T01:36:35.188Z,10.43
2017-10-08T01:37:35.494Z,10.41
2017-10-08T01:38:35.076Z,10.42
2017-10-08T01:39:35.068Z,10.42
2017-10-08T01:40:35.215Z,10.33
2017-10-08T01:41:34.741Z,10.31
2017-10-08T01:42:35.608Z,10.31
2017-10-08T01:43:35.041Z,10.31
2017-10-08T01:44:35.034Z,10.2
2017-10-08T01:45:35.339Z,10.17
2017-10-08T01:46:34.708Z,10.15
2017-10-08T01:47:35.115Z,10.18
2017-10-08T01:48:34.795Z,10.28
2017-10-08T01:49:35.459Z,10.39
2017-10-08T01:50:34.680Z,10.36
2017-10-08T01:51:34.672Z,10.43
2017-10-08T01:52:34.974Z,10.51
2017-10-08T01:53:34.908Z,10.61
2017-10-08T01:54:34.962Z,10.57
2017-10-08T01:55:34.958Z,10.68
2017-10-08T01:56:34.945Z,10.55
2017-10-08T01:57:35.252Z,10.64
2017-10-08T01:58:34.625Z,10.58
2017-10-08T01:59:34.927Z,10.65
2017-10-08T02:00:34.608Z,10.65
2017-10-08T02:01:34.911Z,10.51
2017-10-08T02:02:34.910Z,10.64
2017-10-08T02:03:34.688Z,10.58
2017-10-08T02:04:34.992Z,10.65
2017-10-08T02:05:35.294Z,10.65
2017-10-08T02:06:35.190Z,10.68
2017-10-08T02:07:34.560Z,10.68
2017-10-08T02:08:34.653Z,10.64
2017-10-08T02:09:34.958Z,10.59
2017-10-08T02:10:34.846Z,10.71
2017-10-08T02:11:34.844Z,10.67
2017-10-08T02:12:35.147Z,10.67
2017-10-08T02:13:34.980Z,10.67
2017-10-08T02:14:34.922Z,10.71
2017-10-08T02:15:34.502Z,10.71
2017-10-08T02:16:35.122Z,10.68
2017-10-08T02:17:34.802Z,10.75
2017-10-08T02:18:34.794Z,10.76
2017-10-08T02:19:34.574Z,10.8
2017-10-08T02:20:35.090Z,10.77
2017-10-08T02:21:34.775Z,10.71
2017-10-08T02:22:34.866Z,10.72
2017-10-08T02:23:34.756Z,10.68
2017-10-08T02:24:34.690Z,10.68
2017-10-08T02:25:35.056Z,10.65
2017-10-08T02:26:34.737Z,10.72
2017-10-08T02:27:34.620Z,10.72
2017-10-08T02:28:34.722Z,10.75
2017-10-08T02:29:34.817Z,10.89
2017-10-08T02:30:34.707Z,10.76
2017-10-08T02:31:34.802Z,10.8
2017-10-08T02:32:34.796Z,10.8
2017-10-08T02:33:35.004Z,10.79
2017-10-08T02:34:34.782Z,10.8
2017-10-08T02:35:35.084Z,10.87
2017-10-08T02:36:34.666Z,10.8
2017-10-08T02:37:34.452Z,10.83
2017-10-08T02:38:34.342Z,10.77
2017-10-08T02:39:34.642Z,10.69
2017-10-08T02:40:34.637Z,10.67
2017-10-08T02:41:34.632Z,10.71
2017-10-08T02:42:34.725Z,10.64
2017-10-08T02:43:34.777Z,10.71
2017-10-08T02:44:34.718Z,10.75
2017-10-08T02:45:34.292Z,10.68
2017-10-08T02:46:34.285Z,10.68
2017-10-08T02:47:34.588Z,10.61
2017-10-08T02:48:34.902Z,10.57
2017-10-08T02:49:34.272Z,10.57
2017-10-08T02:50:34.253Z,10.51
2017-10-08T02:51:34.871Z,10.45
2017-10-08T02:52:34.869Z,10.42
2017-10-08T02:53:35.028Z,10.45
2017-10-08T02:54:34.858Z,10.38
2017-10-08T02:55:34.533Z,10.39
2017-10-08T02:56:34.365Z,10.39
2017-10-08T02:57:34.519Z,10.41
2017-10-08T02:58:34.519Z,10.53
2017-10-08T02:59:34.194Z,10.53
2017-10-08T03:00:34.812Z,10.53
2017-10-08T03:01:34.693Z,10.45
2017-10-08T03:02:34.795Z,10.57
2017-10-08T03:03:34.477Z,10.59
2017-10-08T03:04:34.469Z,10.55
2017-10-08T03:05:34.463Z,10.57
2017-10-08T03:06:34.454Z,10.61
2017-10-08T03:07:34.549Z,10.64
2017-10-08T03:08:34.438Z,10.58
2017-10-08T03:09:34.433Z,10.57
2017-10-08T03:10:34.426Z,10.55
2017-10-08T03:11:34.108Z,10.53
2017-10-08T03:12:34.516Z,10.53
2017-10-08T03:13:34.405Z,10.53
2017-10-08T03:14:34.087Z,10.48
2017-10-08T03:15:34.396Z,10.49
2017-10-08T03:16:34.694Z,10.49
2017-10-08T03:17:34.890Z,10.57
2017-10-08T03:18:34.369Z,10.49
2017-10-08T03:19:34.054Z,10.51
2017-10-08T03:20:34.355Z,10.43
2017-10-08T03:21:34.347Z,10.38
2017-10-08T03:22:34.029Z,10.33
2017-10-08T03:23:34.443Z,10.31
2017-10-08T03:24:34.335Z,10.39
2017-10-08T03:25:34.322Z,10.3
2017-10-08T03:26:34.005Z,10.28
2017-10-08T03:27:34.613Z,10.25
2017-10-08T03:28:34.301Z,10.25
2017-10-08T03:29:34.453Z,10.31
2017-10-08T03:30:34.781Z,10.31
2017-10-08T03:31:34.279Z,10.18
2017-10-08T03:32:34.422Z,10.23
2017-10-08T03:33:34.365Z,10.12
2017-10-08T03:34:34.567Z,10.15
2017-10-08T03:35:34.349Z,10.2
2017-10-08T03:36:34.552Z,10.18
2017-10-08T03:37:34.386Z,10.23
2017-10-08T03:38:34.230Z,10.17
2017-10-08T03:39:34.011Z,10.24
2017-10-08T03:40:34.316Z,10.17
2017-10-08T03:41:34.208Z,10.18
2017-10-08T03:42:34.202Z,10.23
2017-10-08T03:43:34.505Z,10.3
2017-10-08T03:44:34.288Z,10.23
2017-10-08T03:45:34.596Z,10.27
2017-10-08T03:46:34.178Z,10.3
2017-10-08T03:47:34.478Z,10.33
2017-10-08T03:48:34.258Z,10.27
2017-10-08T03:49:34.465Z,10.31
2017-10-08T03:50:34.343Z,10.36
2017-10-08T03:51:34.450Z,10.39
2017-10-08T03:52:34.445Z,10.41
2017-10-08T03:53:33.813Z,10.41
2017-10-08T03:54:34.430Z,10.41
2017-10-08T03:55:34.112Z,10.34
2017-10-08T03:56:33.894Z,10.48
2017-10-08T03:57:34.410Z,10.41
2017-10-08T03:58:33.776Z,10.48
2017-10-08T03:59:34.393Z,10.45
2017-10-08T04:00:34.175Z,10.38
2017-10-08T04:01:34.313Z,10.34
2017-10-08T04:02:34.066Z,10.34
2017-10-08T04:03:34.052Z,10.33
2017-10-08T04:04:34.354Z,10.38
2017-10-08T04:05:34.348Z,10.33
2017-10-08T04:06:33.821Z,10.38
2017-10-08T04:07:34.023Z,10.48
2017-10-08T04:08:33.704Z,10.34
2017-10-08T04:09:34.317Z,10.42
2017-10-08T04:10:34.252Z,10.43
2017-10-08T04:11:33.993Z,10.36
2017-10-08T04:12:34.454Z,10.43
2017-10-08T04:13:33.980Z,10.36
2017-10-08T04:14:34.283Z,10.3
2017-10-08T04:15:33.965Z,10.24
2017-10-08T04:16:33.651Z,10.15
2017-10-08T04:17:33.960Z,10.21
2017-10-08T04:18:34.046Z,10.12
2017-10-08T04:19:33.970Z,10.17
2017-10-08T04:20:33.940Z,10.09
2017-10-08T04:21:34.024Z,10.06
2017-10-08T04:22:34.329Z,10.03
2017-10-08T04:23:33.911Z,10.03
2017-10-08T04:24:33.902Z,10
2017-10-08T04:25:34.204Z,10.02
2017-10-08T04:26:33.886Z,10.03
2017-10-08T04:27:33.981Z,9.91
2017-10-08T04:28:33.876Z,10
2017-10-08T04:29:33.867Z,10.06
2017-10-08T04:30:33.862Z,9.99
2017-10-08T04:31:33.541Z,10.02
2017-10-08T04:32:34.277Z,9.99
2017-10-08T04:33:34.249Z,9.95
2017-10-08T04:34:33.830Z,9.99
2017-10-08T04:35:33.513Z,10.02
2017-10-08T04:36:33.813Z,9.97
2017-10-08T04:37:33.749Z,9.87
2017-10-08T04:38:33.490Z,9.88
2017-10-08T04:39:33.793Z,9.76
2017-10-08T04:40:33.629Z,9.77
2017-10-08T04:41:33.788Z,9.8
2017-10-08T04:42:33.785Z,9.77
2017-10-08T04:43:33.456Z,9.7
2017-10-08T04:44:33.448Z,9.7
2017-10-08T04:45:33.440Z,9.8
2017-10-08T04:46:33.535Z,9.81
2017-10-08T04:47:33.741Z,9.77
2017-10-08T04:48:33.669Z,9.77
2017-10-08T04:49:34.034Z,9.82
2017-10-08T04:50:33.713Z,9.72
2017-10-08T04:51:33.706Z,9.87
2017-10-08T04:52:33.696Z,9.91
2017-10-08T04:53:33.696Z,9.77
2017-10-08T04:54:33.627Z,9.74
2017-10-08T04:55:33.683Z,9.76
2017-10-08T04:56:33.671Z,9.77
2017-10-08T04:57:33.670Z,9.88
2017-10-08T04:58:33.968Z,9.85
2017-10-08T04:59:33.650Z,9.85
2017-10-08T05:00:33.642Z,9.76
2017-10-08T05:01:33.426Z,9.88
2017-10-08T05:02:33.939Z,9.88
2017-10-08T05:03:33.823Z,9.85
2017-10-08T05:04:33.614Z,9.85
2017-10-08T05:05:33.297Z,9.77
2017-10-08T05:06:33.598Z,9.85
2017-10-08T05:07:33.533Z,9.87
2017-10-08T05:08:33.585Z,9.88
2017-10-08T05:09:33.681Z,9.8
2017-10-08T05:10:33.881Z,9.87
2017-10-08T05:11:33.566Z,9.88
2017-10-08T05:12:33.559Z,9.85
2017-10-08T05:13:33.386Z,9.88
2017-10-08T05:14:33.233Z,9.92
2017-10-08T05:15:33.684Z,9.91
2017-10-08T05:16:33.840Z,9.9
2017-10-08T05:17:33.931Z,9.87
2017-10-08T05:18:33.714Z,9.9
2017-10-08T05:19:33.815Z,9.84
2017-10-08T05:20:33.498Z,9.76
2017-10-08T05:21:33.492Z,9.76
2017-10-08T05:22:33.485Z,9.74
2017-10-08T05:23:33.318Z,9.66
2017-10-08T05:24:33.468Z,9.66
2017-10-08T05:25:33.463Z,9.64
2017-10-08T05:26:33.768Z,9.77
2017-10-08T05:27:33.137Z,9.69
2017-10-08T05:28:33.542Z,9.76
2017-10-08T05:29:33.432Z,9.81
2017-10-08T05:30:33.526Z,9.73
2017-10-08T05:31:33.420Z,9.77
2017-10-08T05:32:33.412Z,9.73
2017-10-08T05:33:33.096Z,9.77
2017-10-08T05:34:33.502Z,9.77
2017-10-08T05:35:33.703Z,9.74
2017-10-08T05:36:33.383Z,9.8
2017-10-08T05:37:33.689Z,9.88
2017-10-08T05:38:33.367Z,9.84
2017-10-08T05:39:33.155Z,9.77
2017-10-08T05:40:33.356Z,9.88
2017-10-08T05:41:33.348Z,9.92
2017-10-08T05:42:33.440Z,9.92
2017-10-08T05:43:33.334Z,9.85
2017-10-08T05:44:33.427Z,9.77
2017-10-08T05:45:33.006Z,9.85
2017-10-08T05:46:32.997Z,9.91
2017-10-08T05:47:33.722Z,9.9
2017-10-08T05:48:33.085Z,9.91
2017-10-08T05:49:33.288Z,9.84
2017-10-08T05:50:32.970Z,9.84
2017-10-08T05:51:33.273Z,9.91
2017-10-08T05:52:33.417Z,9.91
2017-10-08T05:53:33.097Z,9.91
2017-10-08T05:54:32.941Z,9.91
2017-10-08T05:55:33.034Z,9.95
2017-10-08T05:56:33.237Z,9.91
2017-10-08T05:57:33.232Z,9.85
2017-10-08T05:58:33.323Z,9.85
2017-10-08T05:59:32.902Z,9.77
2017-10-08T06:00:32.892Z,9.85
2017-10-08T06:01:33.295Z,9.77
2017-10-08T06:02:32.878Z,9.77
2017-10-08T06:03:33.590Z,9.76
2017-10-08T06:04:33.013Z,9.77
2017-10-08T06:05:33.167Z,9.85
2017-10-08T06:06:33.257Z,10.02
2017-10-08T06:07:32.845Z,9.92
2017-10-08T06:08:33.146Z,9.95
2017-10-08T06:09:32.827Z,10.06
2017-10-08T06:10:32.922Z,10.09
2017-10-08T06:11:33.433Z,10.05
2017-10-08T06:12:33.264Z,10.03
2017-10-08T06:13:33.117Z,10.03
2017-10-08T06:14:33.102Z,9.91
2017-10-08T06:15:33.094Z,9.94
2017-10-08T06:16:33.089Z,10.03
2017-10-08T06:17:32.771Z,9.97
2017-10-08T06:18:33.481Z,10
2017-10-08T06:19:33.373Z,9.94
2017-10-08T06:20:32.998Z,9.95
2017-10-08T06:21:33.362Z,9.99
2017-10-08T06:22:33.080Z,10.03
2017-10-08T06:23:33.036Z,10.02
2017-10-08T06:24:33.027Z,10.02
2017-10-08T06:25:32.809Z,10.05
2017-10-08T06:26:33.324Z,9.88
2017-10-08T06:27:33.005Z,9.97
2017-10-08T06:28:33.097Z,9.95
2017-10-08T06:29:32.682Z,9.95
2017-10-08T06:30:33.084Z,9.95
2017-10-08T06:31:32.983Z,10.03
2017-10-08T06:32:32.969Z,9.99
2017-10-08T06:33:33.277Z,10.02
2017-10-08T06:34:33.415Z,10.05
2017-10-08T06:35:33.256Z,9.99
2017-10-08T06:36:32.627Z,9.92
2017-10-08T06:37:32.625Z,9.91
2017-10-08T06:38:32.616Z,10.05
2017-10-08T06:39:32.757Z,9.94
2017-10-08T06:40:32.911Z,9.94
2017-10-08T06:41:32.592Z,9.92
2017-10-08T06:42:32.895Z,10
2017-10-08T06:43:32.890Z,9.95
2017-10-08T06:44:32.885Z,10
2017-10-08T06:45:33.129Z,9.91
2017-10-08T06:46:32.557Z,10.03
2017-10-08T06:47:32.960Z,9.92
2017-10-08T06:48:33.165Z,9.97
2017-10-08T06:49:32.536Z,9.91
2017-10-08T06:50:32.841Z,9.94
2017-10-08T06:51:33.140Z,9.91
2017-10-08T06:52:32.824Z,9.9
2017-10-08T06:53:32.826Z,9.99
2017-10-08T06:54:32.811Z,9.92
2017-10-08T06:55:32.804Z,9.85
2017-10-08T06:56:32.898Z,9.92
2017-10-08T06:57:32.787Z,9.85
2017-10-08T06:58:32.779Z,9.82
2017-10-08T06:59:32.774Z,9.77
2017-10-08T07:00:32.765Z,9.81
2017-10-08T07:01:32.760Z,9.74
2017-10-08T07:02:32.851Z,9.85
2017-10-08T07:03:32.741Z,9.91
2017-10-08T07:04:32.426Z,9.92
2017-10-08T07:05:32.731Z,9.82
2017-10-08T07:06:33.032Z,9.9
2017-10-08T07:07:33.028Z,9.91
2017-10-08T07:08:33.167Z,9.88
2017-10-08T07:09:33.010Z,9.9
2017-10-08T07:10:33.000Z,9.88
2017-10-08T07:11:32.999Z,9.87
2017-10-08T07:12:32.680Z,9.87
2017-10-08T07:13:32.359Z,9.87
2017-10-08T07:14:32.353Z,9.9
2017-10-08T07:15:32.656Z,9.91
2017-10-08T07:16:33.064Z,9.87
2017-10-08T07:17:32.643Z,9.92
2017-10-08T07:18:32.321Z,9.92
2017-10-08T07:19:32.315Z,9.95
2017-10-08T07:20:32.622Z,9.97
2017-10-08T07:21:32.814Z,9.82
2017-10-08T07:22:32.605Z,9.84
2017-10-08T07:23:32.599Z,9.91
2017-10-08T07:24:32.687Z,10
2017-10-08T07:25:32.993Z,9.97
2017-10-08T07:26:32.463Z,9.87
2017-10-08T07:27:32.259Z,10
2017-10-08T07:28:32.870Z,9.95
2017-10-08T07:29:32.551Z,9.94
2017-10-08T07:30:32.546Z,10.03
2017-10-08T07:31:32.379Z,10.06
2017-10-08T07:32:32.844Z,10.03
2017-10-08T07:33:32.523Z,10.2
2017-10-08T07:34:32.517Z,10.13
2017-10-08T07:35:32.822Z,10.13
2017-10-08T07:36:32.651Z,10.13
2017-10-08T07:37:32.646Z,10.1
2017-10-08T07:38:32.485Z,10.1
2017-10-08T07:39:32.940Z,10.06
2017-10-08T07:40:32.473Z,10.15
2017-10-08T07:41:32.153Z,10.15
2017-10-08T07:42:32.924Z,10.13
2017-10-08T07:43:32.452Z,10.18
2017-10-08T07:44:32.543Z,10.21
2017-10-08T07:45:32.436Z,10.2
2017-10-08T07:46:32.215Z,10.3
2017-10-08T07:47:32.738Z,10.28
2017-10-08T07:48:32.413Z,10.3
2017-10-08T07:49:32.716Z,10.3
2017-10-08T07:50:32.088Z,10.3
2017-10-08T07:51:32.492Z,10.25
2017-10-08T07:52:32.177Z,10.25
2017-10-08T07:53:32.375Z,10.3
2017-10-08T07:54:32.059Z,10.33
2017-10-08T07:55:32.463Z,10.34
2017-10-08T07:56:32.456Z,10.34
2017-10-08T07:57:32.901Z,10.38
2017-10-08T07:58:32.341Z,10.31
2017-10-08T07:59:32.334Z,10.49
2017-10-08T08:00:32.015Z,10.45
2017-10-08T08:01:32.625Z,10.42
2017-10-08T08:02:32.103Z,10.43
2017-10-08T08:03:31.993Z,10.43
2017-10-08T08:04:32.608Z,10.42
2017-10-08T08:05:32.289Z,10.46
2017-10-08T08:06:32.383Z,10.57
2017-10-08T08:07:32.474Z,10.55
2017-10-08T08:08:32.270Z,10.49
2017-10-08T08:09:32.263Z,10.59
2017-10-08T08:10:32.565Z,10.51
2017-10-08T08:11:31.936Z,10.59
2017-10-08T08:12:32.651Z,10.68
2017-10-08T08:13:32.230Z,10.72
2017-10-08T08:14:32.225Z,10.75
2017-10-08T08:15:32.218Z,10.77
2017-10-08T08:16:32.308Z,10.89
2017-10-08T08:17:32.201Z,10.8
2017-10-08T08:18:32.350Z,10.87
2017-10-08T08:19:32.520Z,10.84
2017-10-08T08:20:31.871Z,10.8
2017-10-08T08:21:32.276Z,10.86
2017-10-08T08:22:32.170Z,10.75
2017-10-08T08:23:32.156Z,10.77
2017-10-08T08:24:32.151Z,10.83
2017-10-08T08:25:31.833Z,10.79
2017-10-08T08:26:32.141Z,10.76
2017-10-08T08:27:32.132Z,10.79
2017-10-08T08:28:32.124Z,10.82
2017-10-08T08:29:32.119Z,10.97
2017-10-08T08:30:32.207Z,10.9
2017-10-08T08:31:31.792Z,10.94
2017-10-08T08:32:32.406Z,11
2017-10-08T08:33:32.508Z,11.08
2017-10-08T08:34:32.080Z,11.05
2017-10-08T08:35:31.864Z,11.18
2017-10-08T08:36:32.573Z,11.13
2017-10-08T08:37:32.160Z,11.23
2017-10-08T08:38:31.742Z,11.19
2017-10-08T08:39:32.046Z,11.18
2017-10-08T08:40:32.137Z,11.27
2017-10-08T08:41:32.133Z,11.27
2017-10-08T08:42:31.711Z,11.27
2017-10-08T08:43:32.481Z,11.37
2017-10-08T08:44:31.697Z,11.27
2017-10-08T08:45:31.691Z,11.31
2017-10-08T08:46:31.692Z,11.34
2017-10-08T08:47:32.190Z,11.33
2017-10-08T08:48:31.983Z,11.3
2017-10-08T08:49:31.664Z,11.33
2017-10-08T08:50:31.758Z,11.33
2017-10-08T08:51:31.650Z,11.31
2017-10-08T08:52:31.641Z,11.35
2017-10-08T08:53:32.045Z,11.37
2017-10-08T08:54:31.728Z,11.41
2017-10-08T08:55:32.343Z,11.38
2017-10-08T08:56:31.612Z,11.52
2017-10-08T08:57:31.607Z,11.48
2017-10-08T08:58:31.698Z,11.56
2017-10-08T08:59:31.591Z,11.52
2017-10-08T09:00:32.046Z,11.48
2017-10-08T09:01:31.889Z,11.67
2017-10-08T09:02:31.885Z,11.68
2017-10-08T09:03:32.184Z,11.62
2017-10-08T09:04:31.552Z,11.62
2017-10-08T09:05:31.548Z,11.55
2017-10-08T09:06:31.854Z,11.55
2017-10-08T09:07:31.845Z,11.52
2017-10-08T09:08:31.526Z,11.51
2017-10-08T09:09:32.239Z,11.52
2017-10-08T09:10:31.927Z,11.52
2017-10-08T09:11:32.226Z,11.58
2017-10-08T09:12:32.121Z,11.56
2017-10-08T09:13:31.491Z,11.53
2017-10-08T09:14:31.792Z,11.6
2017-10-08T09:15:31.625Z,11.65
2017-10-08T09:16:31.879Z,11.58
2017-10-08T09:17:31.773Z,11.67
2017-10-08T09:18:31.765Z,11.6
2017-10-08T09:19:31.757Z,11.63
2017-10-08T09:20:31.752Z,11.62
2017-10-08T09:21:31.999Z,11.6
2017-10-08T09:22:31.735Z,11.73
2017-10-08T09:23:31.728Z,11.62
2017-10-08T09:24:31.724Z,11.8
2017-10-08T09:25:31.715Z,11.73
2017-10-08T09:26:31.855Z,11.78
2017-10-08T09:27:31.701Z,11.68
2017-10-08T09:28:31.690Z,11.71
2017-10-08T09:29:31.995Z,11.71
2017-10-08T09:30:31.679Z,11.67
2017-10-08T09:31:31.669Z,11.76
2017-10-08T09:32:31.974Z,11.68
2017-10-08T09:33:31.347Z,11.7
2017-10-08T09:34:31.341Z,11.76
2017-10-08T09:35:31.841Z,11.76
2017-10-08T09:36:31.736Z,11.74
2017-10-08T09:37:31.937Z,11.8
2017-10-08T09:38:31.620Z,11.78
2017-10-08T09:39:31.615Z,11.7
2017-10-08T09:40:31.604Z,11.71
2017-10-08T09:41:31.702Z,11.74
2017-10-08T09:42:31.283Z,11.74
2017-10-08T09:43:31.272Z,11.76
2017-10-08T09:44:31.577Z,11.76
2017-10-08T09:45:32.033Z,11.77
2017-10-08T09:46:31.678Z,11.83
2017-10-08T09:47:31.558Z,11.85
2017-10-08T09:48:31.548Z,11.78
2017-10-08T09:49:31.545Z,11.74
2017-10-08T09:50:31.637Z,11.78
2017-10-08T09:51:31.215Z,11.8
2017-10-08T09:52:31.551Z,11.76
2017-10-08T09:53:31.202Z,11.83
2017-10-08T09:54:31.505Z,11.73
2017-10-08T09:55:31.599Z,11.83
2017-10-08T09:56:31.495Z,11.85
2017-10-08T09:57:31.483Z,11.86
2017-10-08T09:58:31.786Z,11.88
2017-10-08T09:59:31.467Z,11.86
2017-10-08T10:00:31.476Z,11.81
2017-10-08T10:01:31.556Z,11.8
2017-10-08T10:02:31.446Z,11.77
2017-10-08T10:03:31.753Z,11.81
2017-10-08T10:04:31.123Z,11.85
2017-10-08T10:05:31.838Z,11.78
2017-10-08T10:06:31.520Z,11.86
2017-10-08T10:07:31.412Z,11.78
2017-10-08T10:08:31.244Z,11.83
2017-10-08T10:09:31.085Z,11.78
2017-10-08T10:10:31.397Z,11.81
2017-10-08T10:11:31.073Z,11.78
2017-10-08T10:12:31.376Z,11.78
2017-10-08T10:13:31.373Z,11.8
2017-10-08T10:14:31.364Z,11.78
2017-10-08T10:15:31.352Z,11.77
2017-10-08T10:16:31.347Z,11.83
2017-10-08T10:17:31.540Z,11.8
2017-10-08T10:18:31.121Z,11.91
2017-10-08T10:19:31.330Z,11.89
2017-10-08T10:20:31.624Z,11.96
2017-10-08T10:21:31.310Z,11.91
2017-10-08T10:22:31.302Z,11.97
2017-10-08T10:23:31.083Z,11.96
2017-10-08T10:24:30.978Z,11.96
2017-10-08T10:25:30.971Z,11.99
2017-10-08T10:26:31.277Z,11.99
2017-10-08T10:27:31.424Z,11.85
2017-10-08T10:28:31.575Z,11.99
2017-10-08T10:29:31.253Z,12.03
2017-10-08T10:30:31.395Z,11.99
2017-10-08T10:31:31.080Z,12.02
2017-10-08T10:32:31.545Z,12.03
2017-10-08T10:33:31.224Z,11.95
2017-10-08T10:34:31.217Z,12.02
2017-10-08T10:35:31.210Z,11.99
2017-10-08T10:36:31.518Z,11.86
2017-10-08T10:37:31.504Z,11.85
2017-10-08T10:38:30.877Z,11.95
2017-10-08T10:39:31.589Z,11.91
2017-10-08T10:40:31.180Z,11.96
2017-10-08T10:41:30.854Z,11.93
2017-10-08T10:42:31.568Z,11.97
2017-10-08T10:43:31.157Z,11.97
2017-10-08T10:44:31.141Z,12
2017-10-08T10:45:30.826Z,12.03
2017-10-08T10:46:31.440Z,11.99
2017-10-08T10:47:31.534Z,11.97
2017-10-08T10:48:31.118Z,11.95
2017-10-08T10:49:30.797Z,12.07
2017-10-08T10:50:31.203Z,11.99
2017-10-08T10:51:30.783Z,11.95
2017-10-08T10:52:31.202Z,12.03
2017-10-08T10:53:30.769Z,11.95
2017-10-08T10:54:30.862Z,11.99
2017-10-08T10:55:31.477Z,11.95
2017-10-08T10:56:31.100Z,12.03
2017-10-08T10:57:31.050Z,12.07
2017-10-08T10:58:30.732Z,11.96
2017-10-08T10:59:31.186Z,11.96
2017-10-08T11:00:30.718Z,11.99
2017-10-08T11:01:31.330Z,12.11
2017-10-08T11:02:30.704Z,11.96
2017-10-08T11:03:31.008Z,11.96
2017-10-08T11:04:30.688Z,11.96
2017-10-08T11:05:30.994Z,11.97
2017-10-08T11:06:30.673Z,12.03
2017-10-08T11:07:30.667Z,12.08
2017-10-08T11:08:30.969Z,12.15
2017-10-08T11:09:30.964Z,12.11
2017-10-08T11:10:31.267Z,12.12
2017-10-08T11:11:30.639Z,12.11
2017-10-08T11:12:30.941Z,12.11
2017-10-08T11:13:31.344Z,12.11
2017-10-08T11:14:31.239Z,12.08
2017-10-08T11:15:31.229Z,12.14
2017-10-08T11:16:31.223Z,12.14
2017-10-08T11:17:30.595Z,12.1
2017-10-08T11:18:30.586Z,12.2
2017-10-08T11:19:30.681Z,12.1
2017-10-08T11:20:30.575Z,12.14
2017-10-08T11:21:31.184Z,12.12
2017-10-08T11:22:30.559Z,12.12
2017-10-08T11:23:30.862Z,12
2017-10-08T11:24:31.166Z,11.88
2017-10-08T11:25:31.156Z,11.89
2017-10-08T11:26:30.840Z,11.86
2017-10-08T11:27:31.151Z,11.81
2017-10-08T11:28:30.828Z,11.8
2017-10-08T11:29:30.508Z,11.78
2017-10-08T11:30:31.221Z,11.8
2017-10-08T11:31:30.809Z,11.83
2017-10-08T11:32:31.259Z,11.76
2017-10-08T11:33:30.792Z,11.83
2017-10-08T11:34:30.880Z,11.78
2017-10-08T11:35:30.775Z,11.89
2017-10-08T11:36:31.080Z,11.88
2017-10-08T11:37:30.605Z,11.97
2017-10-08T11:38:30.753Z,12.02
2017-10-08T11:39:31.056Z,12.15
2017-10-08T11:40:30.844Z,12.12
2017-10-08T11:41:30.836Z,12.12
2017-10-08T11:42:31.039Z,12.2
2017-10-08T11:43:30.818Z,12.32
2017-10-08T11:44:30.823Z,12.26
2017-10-08T11:45:31.171Z,12.3
2017-10-08T11:46:30.699Z,12.37
2017-10-08T11:47:30.381Z,12.47
2017-10-08T11:48:30.679Z,12.44
2017-10-08T11:49:30.365Z,12.45
2017-10-08T11:50:30.559Z,12.5
2017-10-08T11:51:30.350Z,12.58
2017-10-08T11:52:30.342Z,12.62
2017-10-08T11:53:30.962Z,12.68
2017-10-08T11:54:30.951Z,12.7
2017-10-08T11:55:30.324Z,12.72
2017-10-08T11:56:30.628Z,12.73
2017-10-08T11:57:30.619Z,12.69
2017-10-08T11:58:30.760Z,12.69
2017-10-08T11:59:30.605Z,12.81
2017-10-08T12:00:30.598Z,12.81
2017-10-08T12:01:31.053Z,12.73
2017-10-08T12:02:30.273Z,12.81
2017-10-08T12:03:30.675Z,12.78
2017-10-08T12:04:30.570Z,12.76
2017-10-08T12:05:30.254Z,12.73
2017-10-08T12:06:30.448Z,12.83
2017-10-08T12:07:30.547Z,12.78
2017-10-08T12:08:30.232Z,12.7
2017-10-08T12:09:30.995Z,12.73
2017-10-08T12:10:30.531Z,12.76
2017-10-08T12:11:30.928Z,12.73
2017-10-08T12:12:30.541Z,12.69
2017-10-08T12:13:30.822Z,12.7
2017-10-08T12:14:30.650Z,12.63
2017-10-08T12:15:30.497Z,12.61
2017-10-08T12:16:30.800Z,12.55
2017-10-08T12:17:30.477Z,12.61
2017-10-08T12:18:30.474Z,12.62
2017-10-08T12:19:30.464Z,12.58
2017-10-08T12:20:30.457Z,12.61
2017-10-08T12:21:30.914Z,12.54
2017-10-08T12:22:30.766Z,12.55
2017-10-08T12:23:30.441Z,12.57
2017-10-08T12:24:30.529Z,12.61
2017-10-08T12:25:30.418Z,12.54
2017-10-08T12:26:30.513Z,12.54
2017-10-08T12:27:30.512Z,12.51
2017-10-08T12:28:30.714Z,12.58
2017-10-08T12:29:30.395Z,12.58
2017-10-08T12:30:30.075Z,12.57
2017-10-08T12:31:30.487Z,12.58
2017-10-08T12:32:30.689Z,12.61
2017-10-08T12:33:30.674Z,12.51
2017-10-08T12:34:30.047Z,12.51
2017-10-08T12:35:30.038Z,12.47
2017-10-08T12:36:30.232Z,12.54
2017-10-08T12:37:30.024Z,12.51
2017-10-08T12:38:30.018Z,12.54
2017-10-08T12:39:30.323Z,12.51
2017-10-08T12:40:30.319Z,12.53
2017-10-08T12:41:30.821Z,12.53
2017-10-08T12:42:30.711Z,12.61
2017-10-08T12:43:30.605Z,12.57
2017-10-08T12:44:30.381Z,12.66
2017-10-08T12:45:30.587Z,12.75
2017-10-08T12:46:30.375Z,12.76
2017-10-08T12:47:29.953Z,12.66
2017-10-08T12:48:30.045Z,12.55
2017-10-08T12:49:30.250Z,12.69
2017-10-08T12:50:30.243Z,12.57
2017-10-08T12:51:29.923Z,12.54
2017-10-08T12:52:30.325Z,12.55
2017-10-08T12:53:29.909Z,12.61
2017-10-08T12:54:30.524Z,12.68
2017-10-08T12:55:30.304Z,12.62
2017-10-08T12:56:30.198Z,12.58
2017-10-08T12:57:30.291Z,12.61
2017-10-08T12:58:30.186Z,12.61
2017-10-08T12:59:30.488Z,12.57
2017-10-08T13:00:30.510Z,12.73